DOF/220927 2028Z

 METAR AND TAF INFORMATION
METAR FOR EGLC
ADDS - METARS form results

(2028 UTC 27 September 2022)
Data provider http://aviationweather.gov/metar/data/
 
METAR text: EGLC 272020Z AUTO 29010KT 9999 NCD 11/07 Q1000
Conditions at: EGLC (LONDON CITY AIRP, GB) observed 2020 UTC 27 September 2022
Temperature: 11.0°C (52°F)
Dewpoint: 7.0°C (45°F) [RH = 76%]
Pressure (altimeter): 29.53 inches Hg (1000.0 mb)
Winds: from the WNW (290 degrees) at 12 MPH (10 knots; 5.1 m/s)
Visibility: 6 or more miles (10+ km)
Ceiling: at least 12,000 feet AGL
Clouds: sky clear below 12,000 feet AGL
Weather: no significant weather observed at this time

METAR text: EGLC 271950Z AUTO 29010KT 250V320 9999 NCD 12/07 Q1000
Conditions at: EGLC (LONDON CITY AIRP, GB) observed 1950 UTC 27 September 2022
Temperature: 12.0°C (54°F)
Dewpoint: 7.0°C (45°F) [RH = 71%]
Pressure (altimeter): 29.53 inches Hg (1000.0 mb)
Winds: from the WNW (290 degrees) at 12 MPH (10 knots; 5.1 m/s)
Visibility: 6 or more miles (10+ km)
Ceiling: at least 12,000 feet AGL
Clouds: sky clear below 12,000 feet AGL
Weather: no significant weather observed at this time

Forecast for: EGLC (LONDON CITY AIRP, GB)
Text: TAF EGLC 271656Z 2718/2721 29009KT 9999 SCT045
Forecast period: 1800 to 2100 UTC 27 September 2022
Forecast type: FROM: standard forecast or significant change
Winds: from the WNW (290 degrees) at 10 MPH (9 knots; 4.6 m/s)
Visibility: 6 or more miles (10+ km)
Ceiling: at least 12,000 feet AGL
Clouds: scattered clouds at 4500 feet AGL
Weather: no significant weather forecast for this period
Text: PROB30
Forecast period: 1800 to 2100 UTC 27 September 2022
Forecast type: TEMPORARY: The following changes expected for less than half the time period
Visibility: 6 miles (9 km)
Ceiling: unknown
Clouds: missing
Weather: SHRA  (rain showers)

 AIRPORT MAP

 RUNWAY INFORMATION
Runway 10 Runway length 4948 ft Runway width 98 ft
Runway elevation 16 ft Runway displaced threshold 358 ft Runway heading 93
Runway 28 Runway length 4948 ft Runway width 98 ft
Runway elevation 19 ft Runway displaced threshold 211 ft Runway heading 273

 AIRPORT FREQUENCIES
Type APP Name APP Frequency 132.7 MHZ
Type ATIS Name ATIS Frequency 136.35 MHZ
Type GND Name GND Frequency 121.825 MHZ
Type TWR Name TWR Frequency 118.075 MHZ

 AIRPORT NEAR NAVIGATION AIDS
Type NDB Name City Frequency 322 KHZ







No Copyright © 2021 Mickey Virtual Airlines - You can copy whatever you want, but only one can be the original.

Powered by Virtual Airlines Manager